Time;durP1;ratioP1;P1;durP2;ratioP2;P2;SDS_P1;SDS_P2;PMS_P1;PMS_P2;Temp;Humidity;BMP_temperature;BMP_pressure;BME280_temperature;BME280_humidity;BME280_pressure;Samples;Min_cycle;Max_cycle;Signal;HPM_P1;HPM_P2
2022/01/25 00:26:19;;;;;;;27.55;14.35;;;;;;;6.15;78.57;102720.59;4848599;29;20049;-77
2022/01/25 00:29:05;;;;;;;29.25;15.07;;;;;;;6.14;78.74;102721.72;4847377;29;20093;-77
2022/01/25 00:31:35;;;;;;;30.77;16.42;;;;;;;6.17;78.65;102725.84;4850042;29;20133;-77
2022/01/25 00:34:03;;;;;;;34.35;14.80;;;;;;;6.17;78.54;102726.66;4848058;29;20042;-77
2022/01/25 00:36:30;;;;;;;28.73;13.32;;;;;;;6.15;78.41;102734.34;4846556;29;20414;-77
2022/01/25 00:38:57;;;;;;;32.08;14.30;;;;;;;6.14;78.70;102727.22;4848025;29;20081;-77
2022/01/25 00:41:25;;;;;;;23.95;13.32;;;;;;;6.12;78.26;102734.88;4846380;29;20054;-77
2022/01/25 00:43:54;;;;;;;25.38;12.52;;;;;;;6.11;78.32;102727.75;4847948;29;20045;-77
2022/01/25 00:46:22;;;;;;;30.73;16.35;;;;;;;6.10;78.01;102729.66;4829840;29;20060;-77
2022/01/25 00:48:54;;;;;;;28.50;14.48;;;;;;;6.11;78.15;102727.75;4846620;29;20042;-77
2022/01/25 00:54:13;;;;;;;25.42;13.95;;;;;;;6.10;78.03;102726.91;4848709;29;20304;-77
2022/01/25 00:56:43;;;;;;;26.90;13.98;;;;;;;6.11;78.30;102725.81;4844843;29;20076;-77
2022/01/25 00:59:13;;;;;;;26.48;13.90;;;;;;;6.11;78.08;102730.50;4847013;29;20076;-77
2022/01/25 01:01:42;;;;;;;24.75;13.73;;;;;;;6.11;78.02;102731.34;4846668;29;20049;-77
2022/01/25 01:04:09;;;;;;;27.95;13.85;;;;;;;6.11;78.01;102730.50;4846708;29;20041;-77
2022/01/25 01:06:37;;;;;;;22.65;13.77;;;;;;;6.12;78.30;102734.88;4846218;29;20391;-77
2022/01/25 01:09:07;;;;;;;27.42;13.27;;;;;;;6.12;78.09;102729.38;4848091;29;20069;-77
2022/01/25 01:11:45;;;;;;;25.00;13.13;;;;;;;6.12;78.11;102729.38;4848060;29;20078;-77
2022/01/25 01:14:23;;;;;;;26.27;12.88;;;;;;;6.13;78.33;102731.03;4847008;29;20055;-77
2022/01/25 01:28:52;;;;;;;33.00;14.50;;;;;;;6.16;78.00;102736.03;4846159;29;20056;-77
2022/01/25 01:31:02;;;;;;;27.48;14.75;;;;;;;6.14;77.90;102717.03;4847909;29;20061;-77
2022/01/25 01:34:38;;;;;;;28.40;15.25;;;;;;;6.14;77.93;102721.72;4848239;29;20045;-77
2022/01/25 01:36:49;;;;;;;24.17;14.10;;;;;;;6.12;77.74;102715.63;4831380;29;20545;-77
2022/01/25 01:44:20;;;;;;;30.38;13.50;;;;;;;6.12;77.55;102721.97;4846882;29;20058;-77
2022/01/25 01:49:40;;;;;;;24.98;14.57;;;;;;;6.15;77.98;102706.84;4836431;29;20045;-77
2022/01/25 01:52:08;;;;;;;30.02;15.30;;;;;;;6.14;78.08;102703.28;4801798;29;20041;-77
2022/01/25 01:54:35;;;;;;;26.33;13.75;;;;;;;6.13;77.94;102709.06;4800264;29;20045;-77
2022/01/25 01:57:03;;;;;;;25.50;13.70;;;;;;;6.11;78.09;102694.75;4799763;29;20534;-76
2022/01/25 01:59:30;;;;;;;26.67;15.23;;;;;;;6.10;77.84;102698.56;4803463;29;20050;-77
2022/01/25 02:01:58;;;;;;;29.67;13.82;;;;;;;6.08;78.16;102701.59;4802648;29;20057;-77
2022/01/25 02:04:25;;;;;;;29.42;14.60;;;;;;;6.09;77.91;102696.91;4805156;29;20510;-77
2022/01/25 02:06:52;;;;;;;23.67;13.65;;;;;;;6.07;78.14;102699.13;4804202;29;20062;-77
2022/01/25 02:09:19;;;;;;;30.83;14.38;;;;;;;6.06;77.87;102692.78;4804133;29;20046;-77
2022/01/25 02:11:46;;;;;;;25.30;13.48;;;;;;;6.08;77.77;102690.63;4802731;29;20045;-77
2022/01/25 02:14:15;;;;;;;25.45;12.77;;;;;;;6.05;77.88;102685.66;4788191;29;20213;-77
2022/01/25 02:24:44;;;;;;;23.17;13.75;;;;;;;6.01;77.46;102697.44;4805096;29;20344;-76
2022/01/25 02:27:12;;;;;;;18.35;11.38;;;;;;;5.97;77.85;102697.16;4804049;29;20060;-77
2022/01/25 02:29:39;;;;;;;23.27;12.02;;;;;;;5.97;77.84;102696.31;4804420;29;20053;-77
2022/01/25 02:32:07;;;;;;;26.02;12.52;;;;;;;5.98;77.46;102701.53;4804420;29;20050;-76
2022/01/25 02:34:35;;;;;;;20.77;10.57;;;;;;;5.95;77.39;102695.75;4803480;29;20375;-77
2022/01/25 02:37:10;;;;;;;22.60;11.45;;;;;;;5.97;77.25;102699.06;4804466;29;20061;-77
2022/01/25 02:39:39;;;;;;;22.88;11.38;;;;;;;5.99;77.45;102694.13;4804992;29;20069;-77
2022/01/25 02:42:06;;;;;;;22.38;11.90;;;;;;;6.03;77.42;102700.75;4802967;29;20544;-77
2022/01/25 02:44:35;;;;;;;19.08;11.45;;;;;;;6.05;77.09;102695.81;4804493;29;20499;-77
2022/01/25 02:49:32;;;;;;;23.00;11.43;;;;;;;6.08;76.81;102695.28;4850043;29;20061;-77
2022/01/25 02:52:00;;;;;;;17.63;8.90;;;;;;;6.06;76.83;102691.97;4848174;29;20428;-77
2022/01/25 02:54:29;;;;;;;16.85;9.63;;;;;;;6.07;77.00;102690.88;4849547;29;20065;-77
2022/01/25 02:56:56;;;;;;;19.65;10.70;;;;;;;6.10;77.03;102687.59;4850014;29;20148;-77
2022/01/25 02:59:23;;;;;;;22.65;10.00;;;;;;;6.11;77.28;102694.75;4814446;29;21750;-77
2022/01/25 03:01:50;;;;;;;18.15;9.75;;;;;;;6.10;77.27;102693.09;4812538;29;20090;-77
2022/01/25 03:04:20;;;;;;;20.83;10.63;;;;;;;6.09;77.00;102681.25;4807451;29;20170;-77
2022/01/25 03:06:50;;;;;;;20.83;9.98;;;;;;;6.07;77.14;102682.63;4814972;29;20711;-77
2022/01/25 03:09:16;;;;;;;21.13;11.02;;;;;;;6.07;77.35;102688.13;4812194;29;20550;-77
2022/01/25 03:11:46;;;;;;;20.45;10.23;;;;;;;6.07;77.04;102682.63;4807208;29;20047;-77
2022/01/25 03:14:13;;;;;;;22.88;10.65;;;;;;;6.08;77.01;102679.63;4813213;29;20053;-77
2022/01/25 03:19:42;;;;;;;17.63;9.93;;;;;;;6.09;77.16;102669.41;4814372;29;20121;-77
2022/01/25 03:22:32;;;;;;;19.02;10.32;;;;;;;6.08;77.33;102678.78;4807145;29;20051;-77
2022/01/25 03:24:59;;;;;;;19.52;10.85;;;;;;;6.08;77.18;102665.03;4812917;29;20069;-77
2022/01/25 03:27:26;;;;;;;21.08;11.40;;;;;;;6.08;77.45;102673.28;4812675;29;20046;-77
2022/01/25 03:29:52;;;;;;;23.60;11.82;;;;;;;6.06;77.37;102664.47;4813100;29;20053;-77
2022/01/25 03:32:19;;;;;;;19.33;10.13;;;;;;;6.04;77.47;102661.97;4813012;29;20046;-77
2022/01/25 03:34:47;;;;;;;23.00;11.40;;;;;;;6.04;77.31;102661.16;4806253;29;20084;-77
2022/01/25 03:37:13;;;;;;;20.00;9.57;;;;;;;6.05;77.32;102655.41;4814408;29;20538;-77
2022/01/25 03:39:40;;;;;;;18.55;10.32;;;;;;;6.05;77.48;102651.81;4830069;29;20054;-76
2022/01/25 03:42:10;;;;;;;20.92;10.55;;;;;;;6.05;77.39;102658.16;4810331;29;20050;-77
2022/01/25 03:44:40;;;;;;;18.65;11.38;;;;;;;6.08;77.39;102662.28;4811565;29;20050;-77
2022/01/25 03:47:11;;;;;;;19.23;11.25;;;;;;;6.09;77.38;102659.25;4810245;29;20912;-76
2022/01/25 03:49:51;;;;;;;22.25;11.20;;;;;;;6.09;77.68;102659.25;4811912;29;20051;-76
2022/01/25 03:52:33;;;;;;;22.50;12.10;;;;;;;6.10;77.60;102654.59;4826641;29;20570;-76
2022/01/25 03:55:00;;;;;;;19.88;10.75;;;;;;;6.11;77.59;102645.25;4813085;29;20050;-77
2022/01/25 03:57:27;;;;;;;20.17;10.73;;;;;;;6.11;77.51;102645.25;4817421;29;20053;-77
2022/01/25 03:59:57;;;;;;;19.80;10.57;;;;;;;6.11;77.57;102646.09;4850012;29;20073;-77
2022/01/25 04:02:25;;;;;;;22.55;11.13;;;;;;;6.13;77.63;102637.56;4848729;29;20049;-76
2022/01/25 04:04:52;;;;;;;19.08;11.25;;;;;;;6.13;77.63;102634.81;4846307;29;20053;-77
2022/01/25 04:07:27;;;;;;;23.80;13.32;;;;;;;6.14;77.65;102641.97;4848155;29;20105;-77
2022/01/25 04:09:55;;;;;;;22.75;11.57;;;;;;;6.13;77.79;102632.06;4847789;29;20046;-76
2022/01/25 04:12:22;;;;;;;24.30;11.23;;;;;;;6.15;77.95;102635.34;4849117;29;20049;-77
2022/01/25 04:14:49;;;;;;;18.38;10.82;;;;;;;6.15;77.49;102635.34;4845918;29;20054;-77
2022/01/25 04:17:19;;;;;;;17.27;10.38;;;;;;;6.16;77.54;102625.19;4851671;29;20709;-76
2022/01/25 04:20:08;;;;;;;18.42;10.88;;;;;;;6.15;77.88;102624.34;4848851;29;20049;-76
2022/01/25 04:25:18;;;;;;;18.95;10.75;;;;;;;6.14;77.85;102628.22;4848731;29;20136;-77
2022/01/25 04:27:45;;;;;;;19.63;10.75;;;;;;;6.12;78.03;102631.22;4847333;29;20045;-77
2022/01/25 04:30:12;;;;;;;19.98;10.20;;;;;;;6.10;77.87;102616.09;4846352;29;20852;-76
2022/01/25 04:49:17;;;;;;;18.98;10.73;;;;;;;6.11;77.99;102628.75;4849396;29;20503;-76
2022/01/25 04:51:52;;;;;;;21.90;11.38;;;;;;;6.12;78.13;102633.13;4845220;29;20054;-77
2022/01/25 04:57:08;;;;;;;23.23;11.35;;;;;;;6.13;77.94;102627.38;4848219;29;20046;-76
2022/01/25 05:05:14;;;;;;;20.60;9.77;;;;;;;6.15;78.16;102629.84;4846007;29;20086;-77
2022/01/25 05:10:10;;;;;;;21.52;10.98;;;;;;;6.17;78.56;102632.34;4848507;29;20144;-77
2022/01/25 05:12:52;;;;;;;23.45;10.82;;;;;;;6.15;78.35;102629.84;4843589;29;20081;-77
2022/01/25 05:18:24;;;;;;;18.73;9.90;;;;;;;6.14;78.67;102629.03;4848789;29;20659;-76
2022/01/25 05:23:36;;;;;;;19.45;10.13;;;;;;;6.11;78.47;102618.59;4847874;29;20073;-77
2022/01/25 05:26:03;;;;;;;20.63;10.32;;;;;;;6.11;78.72;102620.50;4848603;29;20086;-76
2022/01/25 05:28:29;;;;;;;17.27;9.57;;;;;;;6.11;78.53;102623.25;4847540;29;20048;-77
2022/01/25 05:30:56;;;;;;;17.38;8.88;;;;;;;6.12;78.90;102619.38;4845857;29;20046;-77
2022/01/25 05:33:23;;;;;;;18.40;10.60;;;;;;;6.12;78.94;102624.88;4850030;29;20082;-77
2022/01/25 05:35:49;;;;;;;23.08;11.38;;;;;;;6.13;78.72;102621.88;4851747;29;20042;-77
2022/01/25 05:38:16;;;;;;;19.50;9.95;;;;;;;6.13;78.80;102621.06;4851808;29;20045;-77
2022/01/25 05:40:46;;;;;;;21.10;10.75;;;;;;;6.14;78.79;102619.97;4851300;29;20076;-76
2022/01/25 05:46:03;;;;;;;22.02;10.68;;;;;;;6.12;78.91;102624.88;4852076;29;20485;-77
2022/01/25 05:48:31;;;;;;;22.30;11.43;;;;;;;6.13;79.01;102626.56;4851600;29;20128;-77
2022/01/25 05:50:58;;;;;;;18.60;9.57;;;;;;;6.12;78.71;102633.13;4851434;29;20045;-77
2022/01/25 05:53:25;;;;;;;20.17;10.05;;;;;;;6.12;78.60;102633.13;4850875;29;20046;-76
2022/01/25 05:55:52;;;;;;;15.00;7.80;;;;;;;6.12;78.82;102633.13;4851215;29;20044;-77
2022/01/25 05:58:20;;;;;;;20.58;10.20;;;;;;;6.12;78.29;102642.22;4851077;29;20066;-76
2022/01/25 06:00:46;;;;;;;15.65;8.93;;;;;;;6.13;78.41;102643.06;4850657;29;20224;-77
2022/01/25 06:03:14;;;;;;;17.25;8.60;;;;;;;6.11;78.54;102637.84;4849194;29;20053;-77
2022/01/25 06:05:41;;;;;;;19.55;9.57;;;;;;;6.09;78.53;102639.16;4852109;29;20042;-77
2022/01/25 06:08:08;;;;;;;16.55;8.38;;;;;;;6.06;78.64;102629.53;4849763;29;20076;-76
2022/01/25 06:10:35;;;;;;;18.30;8.82;;;;;;;6.08;78.18;102632.88;4849410;29;20049;-77
2022/01/25 06:13:01;;;;;;;17.15;9.65;;;;;;;6.08;78.13;102634.78;4850000;29;20172;-77
2022/01/25 06:15:28;;;;;;;23.65;10.25;;;;;;;6.08;78.18;102630.13;4849567;29;20054;-77
2022/01/25 06:17:55;;;;;;;19.35;9.13;;;;;;;6.09;78.27;102634.50;4851756;29;20049;-77
2022/01/25 06:20:23;;;;;;;15.27;7.97;;;;;;;6.08;78.25;102632.03;4849649;29;20055;-77
2022/01/25 06:22:49;;;;;;;17.80;9.10;;;;;;;6.08;77.93;102640.28;4849973;29;20098;-76
2022/01/25 06:25:17;;;;;;;13.75;8.27;;;;;;;6.08;78.22;102632.88;4849965;29;20050;-77
2022/01/25 06:27:45;;;;;;;17.88;8.75;;;;;;;6.07;78.05;102627.63;4849119;29;20042;-77
2022/01/25 06:30:15;;;;;;;15.75;8.05;;;;;;;6.06;78.18;102640.53;4849466;29;20145;-77
2022/01/25 06:32:42;;;;;;;14.55;8.18;;;;;;;6.05;78.08;102636.16;4848463;29;20037;-77
2022/01/25 06:35:09;;;;;;;15.40;8.38;;;;;;;6.05;78.19;102640.81;4850467;29;20054;-77
2022/01/25 06:37:36;;;;;;;15.77;8.25;;;;;;;6.07;77.68;102635.88;4853404;29;20041;-77
2022/01/25 06:40:07;;;;;;;17.17;9.50;;;;;;;6.05;77.94;102640.81;4850723;29;20044;-76
2022/01/25 06:42:35;;;;;;;15.18;7.10;;;;;;;6.06;77.69;102639.72;4849387;29;20065;-76
2022/01/25 06:45:13;;;;;;;14.88;9.13;;;;;;;6.04;77.79;102639.97;4848088;29;20075;-77
2022/01/25 06:47:41;;;;;;;21.17;9.75;;;;;;;6.05;77.62;102640.81;4836410;29;20128;-77
2022/01/25 06:50:08;;;;;;;15.70;8.05;;;;;;;6.07;77.53;102635.88;4850328;29;20052;-77
2022/01/25 06:52:38;;;;;;;15.43;8.15;;;;;;;6.06;77.55;102639.72;4849391;29;20061;-77
2022/01/25 06:55:12;;;;;;;18.40;6.78;;;;;;;6.08;77.34;102641.13;4852010;29;20120;-76
2022/01/25 06:57:39;;;;;;;16.73;8.63;;;;;;;6.08;77.50;102646.63;4848531;29;20066;-76
2022/01/25 07:00:10;;;;;;;20.27;10.52;;;;;;;6.05;77.25;102654.56;4850593;29;20047;-76
2022/01/25 07:02:37;;;;;;;15.45;8.75;;;;;;;6.06;77.52;102647.97;4848885;29;20103;-76
2022/01/25 07:05:04;;;;;;;16.02;8.13;;;;;;;6.07;77.65;102649.63;4849111;29;20046;-76
2022/01/25 07:07:31;;;;;;;19.27;8.98;;;;;;;6.06;77.78;102647.97;4849018;29;20053;-76
2022/01/25 07:09:58;;;;;;;14.00;8.05;;;;;;;6.07;77.56;102649.63;4848223;29;20045;-76
2022/01/25 07:12:25;;;;;;;16.08;7.90;;;;;;;6.10;77.47;102654.59;4848312;29;20661;-77
2022/01/25 07:14:51;;;;;;;14.98;8.05;;;;;;;6.10;77.45;102649.09;4848250;29;20116;-77
2022/01/25 07:17:18;;;;;;;18.70;10.20;;;;;;;6.12;77.48;102657.88;4846735;29;20045;-76
2022/01/25 07:19:45;;;;;;;19.52;9.13;;;;;;;6.13;77.25;102659.56;4849472;29;20058;-76
2022/01/25 07:22:12;;;;;;;14.77;7.70;;;;;;;6.14;77.44;102664.75;4847603;29;20053;-77
2022/01/25 07:24:39;;;;;;;21.60;10.27;;;;;;;6.14;77.07;102662.03;4850598;29;20054;-76
2022/01/25 07:27:06;;;;;;;12.38;7.40;;;;;;;6.16;77.28;102656.28;4849795;29;20550;-77
2022/01/25 07:29:33;;;;;;;15.82;8.13;;;;;;;6.17;77.51;102662.59;4849692;29;20113;-77
2022/01/25 07:32:00;;;;;;;16.83;8.13;;;;;;;6.18;77.28;102670.56;4847069;29;20049;-77
2022/01/25 07:34:31;;;;;;;19.75;8.35;;;;;;;6.16;77.17;102670.00;4849289;29;20038;-76
2022/01/25 07:37:00;;;;;;;15.18;8.55;;;;;;;6.17;77.42;102671.66;4849191;29;20041;-77
2022/01/25 07:39:29;;;;;;;16.23;7.32;;;;;;;6.16;77.33;102681.03;4849496;29;20078;-76
2022/01/25 07:41:58;;;;;;;14.43;7.97;;;;;;;6.17;77.47;102677.16;4827117;29;20422;-77
2022/01/25 07:44:28;;;;;;;16.88;7.95;;;;;;;6.18;77.17;102689.81;4849232;29;20056;-76
2022/01/25 07:47:00;;;;;;;18.13;8.80;;;;;;;6.19;77.46;102688.72;4848855;29;20534;-77
2022/01/25 07:49:30;;;;;;;18.48;8.45;;;;;;;6.21;77.22;102682.94;4845642;29;20475;-76
2022/01/25 07:51:57;;;;;;;15.50;8.55;;;;;;;6.20;77.30;102693.13;4849440;29;20042;-77
2022/01/25 07:54:25;;;;;;;15.57;7.50;;;;;;;6.22;77.09;102698.38;4849336;29;20057;-76
2022/01/25 07:56:53;;;;;;;15.77;7.85;;;;;;;6.20;77.38;102698.63;4849325;29;20042;-76
2022/01/25 07:59:20;;;;;;;15.13;8.30;;;;;;;6.21;77.17;102697.53;4843881;29;20122;-77
2022/01/25 08:01:49;;;;;;;16.20;7.95;;;;;;;6.23;77.19;102703.59;4848392;29;20079;-76
2022/01/25 08:04:22;;;;;;;15.38;7.28;;;;;;;6.23;76.99;102702.75;4848778;29;20056;-77
2022/01/25 08:06:53;;;;;;;19.50;8.70;;;;;;;6.22;77.34;102696.44;4849244;29;20134;-76
2022/01/25 08:09:22;;;;;;;15.85;9.20;;;;;;;6.22;77.31;102692.88;4846665;29;20130;-77
2022/01/25 08:11:55;;;;;;;16.55;8.35;;;;;;;6.22;77.07;102701.94;4845922;29;20140;-77
2022/01/25 08:14:31;;;;;;;14.00;8.15;;;;;;;6.23;77.31;102694.50;4848664;29;20542;-77
2022/01/25 08:17:01;;;;;;;16.00;8.80;;;;;;;6.23;77.41;102700.00;4849376;29;20920;-77
2022/01/25 08:19:30;;;;;;;13.40;7.93;;;;;;;6.21;77.39;102705.78;4846437;29;20041;-77
2022/01/25 08:21:56;;;;;;;14.23;7.05;;;;;;;6.20;77.24;102709.63;4846447;29;20606;-76
2022/01/25 08:24:26;;;;;;;18.40;9.00;;;;;;;6.23;77.38;102702.75;4848773;29;20128;-77
2022/01/25 08:27:06;;;;;;;15.70;8.75;;;;;;;6.23;77.25;102709.09;4845958;29;20052;-80
2022/01/25 08:29:36;;;;;;;17.23;9.57;;;;;;;6.22;77.18;102712.97;4844599;29;20406;-77
2022/01/25 08:32:12;;;;;;;17.95;8.98;;;;;;;6.23;77.30;102709.09;4846469;29;20061;-77
2022/01/25 08:34:41;;;;;;;15.55;8.40;;;;;;;6.24;77.48;102716.25;4847924;29;20088;-78
2022/01/25 08:37:17;;;;;;;15.73;8.60;;;;;;;6.25;77.20;102728.91;4849223;29;20064;-76
2022/01/25 08:39:47;;;;;;;17.88;9.32;;;;;;;6.25;77.32;102739.09;4828143;29;20052;-77
2022/01/25 08:42:19;;;;;;;18.90;8.98;;;;;;;6.25;77.32;102733.59;4847508;29;20085;-77
2022/01/25 08:44:46;;;;;;;15.65;8.52;;;;;;;6.25;77.25;102734.41;4845771;29;20145;-76
2022/01/25 08:47:18;;;;;;;17.00;8.48;;;;;;;6.25;76.98;102739.91;4846213;29;20049;-77
2022/01/25 08:49:45;;;;;;;18.75;9.35;;;;;;;6.26;77.09;102736.06;4864609;29;20085;-76
2022/01/25 08:52:12;;;;;;;18.50;9.60;;;;;;;6.27;77.07;102745.97;4845084;29;20041;-77
2022/01/25 08:54:41;;;;;;;19.48;9.02;;;;;;;6.27;76.92;102732.22;4847148;29;20041;-77
2022/01/25 08:57:09;;;;;;;16.13;8.85;;;;;;;6.29;77.20;102734.69;4847256;29;20056;-78
2022/01/25 08:59:43;;;;;;;22.10;10.73;;;;;;;6.29;77.20;102737.44;4815540;29;20049;-78
2022/01/25 09:02:10;;;;;;;16.50;8.38;;;;;;;6.29;77.27;102734.69;4814214;29;20046;-77
2022/01/25 09:04:37;;;;;;;19.30;10.05;;;;;;;6.29;77.33;102738.28;4814264;29;20078;-78
2022/01/25 09:07:04;;;;;;;17.48;10.25;;;;;;;6.30;77.32;102737.16;4813973;29;20050;-78
2022/01/25 09:09:31;;;;;;;19.80;9.48;;;;;;;6.30;77.24;102737.16;4815174;29;20053;-77
2022/01/25 09:11:58;;;;;;;18.73;9.60;;;;;;;6.31;77.25;102732.50;4815097;29;20053;-78
2022/01/25 09:14:25;;;;;;;18.42;10.02;;;;;;;6.31;77.48;102738.84;4813777;29;20050;-78
2022/01/25 09:16:52;;;;;;;19.50;10.45;;;;;;;6.33;77.41;102733.09;4798528;29;20472;-78
2022/01/25 09:19:19;;;;;;;20.75;10.43;;;;;;;6.34;77.46;102729.22;4814563;29;20047;-78
2022/01/25 09:21:45;;;;;;;15.63;9.68;;;;;;;6.35;77.24;102733.63;4815034;29;20144;-78
2022/01/25 09:24:12;;;;;;;17.77;9.93;;;;;;;6.36;77.35;102732.53;4814397;29;20049;-77
2022/01/25 09:26:39;;;;;;;19.23;9.20;;;;;;;6.35;77.33;102723.47;4812934;29;20046;-78
2022/01/25 09:29:06;;;;;;;21.20;10.25;;;;;;;6.35;77.45;102726.22;4812797;29;20078;-78
2022/01/25 09:31:33;;;;;;;19.98;10.73;;;;;;;6.37;77.51;102724.00;4815061;29;20049;-77
2022/01/25 09:34:00;;;;;;;19.52;10.43;;;;;;;6.39;77.42;102727.31;4813943;29;20126;-78
2022/01/25 09:36:29;;;;;;;17.45;9.68;;;;;;;6.39;77.42;102719.06;4814098;29;20053;-78
2022/01/25 09:38:56;;;;;;;20.00;10.25;;;;;;;6.39;77.30;102721.81;4814712;29;20074;-78
2022/01/25 09:41:24;;;;;;;22.27;11.32;;;;;;;6.38;77.38;102717.41;4816195;29;20042;-78
2022/01/25 09:43:51;;;;;;;22.98;11.55;;;;;;;6.41;77.56;102722.38;4813750;29;20038;-78
2022/01/25 09:46:18;;;;;;;19.27;8.40;;;;;;;6.42;77.57;102729.53;4814603;29;20114;-79
2022/01/25 09:48:48;;;;;;;20.58;9.55;;;;;;;6.43;77.50;102724.88;4813247;29;20150;-79
2022/01/25 09:51:18;;;;;;;21.40;9.00;;;;;;;6.44;77.44;102726.50;4814189;29;20050;-79
2022/01/25 09:53:48;;;;;;;21.85;8.77;;;;;;;6.45;77.17;102729.00;4813093;29;20050;-79
2022/01/25 09:56:14;;;;;;;21.75;10.50;;;;;;;6.48;77.32;102722.13;4811980;29;20197;-78
2022/01/25 09:58:42;;;;;;;25.15;10.93;;;;;;;6.49;77.39;102730.09;4834096;29;20056;-79
2022/01/25 10:01:09;;;;;;;25.75;11.40;;;;;;;6.50;77.40;102737.28;4848798;29;20045;-78
2022/01/25 10:03:39;;;;;;;22.45;10.38;;;;;;;6.51;77.52;102733.41;4846318;29;20056;-78
2022/01/25 10:06:16;;;;;;;24.27;11.60;;;;;;;6.52;77.62;102740.56;4831070;29;20049;-81
2022/01/25 10:08:45;;;;;;;20.15;11.02;;;;;;;6.52;77.47;102732.31;4846249;29;20057;-77
2022/01/25 10:11:15;;;;;;;36.72;11.88;;;;;;;6.53;77.72;102738.66;4852125;29;20053;-77
2022/01/25 10:13:44;;;;;;;22.25;11.40;;;;;;;6.52;77.75;102728.72;4851578;29;20051;-77
2022/01/25 10:16:17;;;;;;;23.40;11.43;;;;;;;6.52;77.75;102735.06;4846983;29;20525;-77
2022/01/25 10:18:57;;;;;;;33.67;12.18;;;;;;;6.52;77.54;102723.22;4848822;29;20077;-77
2022/01/25 10:21:35;;;;;;;33.97;12.30;;;;;;;6.53;77.47;102733.97;4849469;29;20557;-77
2022/01/25 10:24:12;;;;;;;18.70;9.80;;;;;;;6.54;77.54;102738.38;4849930;29;20066;-77
2022/01/25 10:26:52;;;;;;;24.23;10.73;;;;;;;6.54;77.40;102732.06;4851054;29;20048;-77
2022/01/25 10:29:21;;;;;;;20.45;10.80;;;;;;;6.54;77.39;102732.06;4845746;29;20048;-77
2022/01/25 10:31:53;;;;;;;21.80;10.25;;;;;;;6.56;77.45;102735.38;4846815;29;20124;-77
2022/01/25 10:34:26;;;;;;;21.30;10.18;;;;;;;6.56;77.10;102727.13;4851529;29;20046;-77
2022/01/25 10:36:53;;;;;;;27.20;11.45;;;;;;;6.57;77.26;102731.50;4848827;29;20050;-77
2022/01/25 10:39:31;;;;;;;19.02;10.18;;;;;;;6.58;77.22;102733.16;4851117;29;20506;-78
2022/01/25 10:42:26;;;;;;;17.50;9.07;;;;;;;6.60;77.14;102730.97;4847726;29;20054;-78
2022/01/25 10:45:02;;;;;;;17.30;8.52;;;;;;;6.60;77.07;102729.03;4848320;29;20117;-78
2022/01/25 10:47:49;;;;;;;18.45;11.15;;;;;;;6.61;77.02;102727.97;4849445;29;20065;-77
2022/01/25 10:50:21;;;;;;;26.25;10.57;;;;;;;6.62;77.08;102729.59;4848119;29;20061;-77
2022/01/25 10:53:15;;;;;;;20.48;10.18;;;;;;;6.62;76.95;102723.25;4854137;29;20042;-77
2022/01/25 10:55:48;;;;;;;27.52;10.05;;;;;;;6.62;77.23;102732.34;4850878;29;20118;-77
2022/01/25 10:58:16;;;;;;;16.70;9.38;;;;;;;6.63;77.13;102731.25;4848683;29;20513;-77
2022/01/25 11:00:49;;;;;;;19.20;9.52;;;;;;;6.64;76.75;102727.44;4849258;29;20038;-77
2022/01/25 11:03:32;;;;;;;19.33;9.43;;;;;;;6.66;76.84;102724.38;4867666;29;20826;-77
2022/01/25 11:06:18;;;;;;;19.05;9.95;;;;;;;6.67;76.88;102726.84;4866190;29;20070;-77
2022/01/25 11:08:48;;;;;;;20.40;9.88;;;;;;;6.69;76.77;102730.19;4850143;29;20046;-78
2022/01/25 11:11:26;;;;;;;22.98;9.60;;;;;;;6.73;76.92;102734.03;4849306;29;20080;-77
2022/01/25 11:13:54;;;;;;;27.25;10.50;;;;;;;6.72;76.81;102728.81;4847419;29;20144;-77
2022/01/25 11:16:21;;;;;;;17.27;8.93;;;;;;;6.73;77.06;102736.78;4850175;29;20109;-77
2022/01/25 11:18:48;;;;;;;22.88;10.05;;;;;;;6.77;77.27;102733.50;4849815;29;20041;-78
2022/01/25 11:21:15;;;;;;;20.08;10.20;;;;;;;6.78;76.98;102732.41;4849038;29;20067;-77
2022/01/25 11:23:44;;;;;;;26.15;11.73;;;;;;;6.80;76.89;102736.53;4829671;29;20747;-77
2022/01/25 11:26:14;;;;;;;18.98;9.85;;;;;;;6.83;76.92;102735.19;4829737;29;20077;-77
2022/01/25 11:28:42;;;;;;;26.23;11.30;;;;;;;6.84;76.87;102736.81;4847282;29;20074;-78
2022/01/25 11:31:14;;;;;;;23.75;10.30;;;;;;;6.86;76.74;102740.94;4845434;29;20049;-77
2022/01/25 11:33:45;;;;;;;25.88;9.35;;;;;;;6.91;76.82;102742.91;4848594;29;20508;-78
2022/01/25 11:36:12;;;;;;;21.20;10.15;;;;;;;6.94;76.77;102742.34;4848702;29;20049;-77
2022/01/25 11:38:43;;;;;;;19.15;9.95;;;;;;;6.95;76.88;102744.00;4848419;29;20049;-78
2022/01/25 11:41:13;;;;;;;22.63;10.00;;;;;;;6.95;76.85;102738.50;4849794;29;21131;-79
2022/01/25 11:44:04;;;;;;;22.73;10.20;;;;;;;6.98;76.75;102730.53;4847990;29;20085;-78
2022/01/25 11:46:31;;;;;;;25.73;11.43;;;;;;;7.00;77.01;102733.81;4848462;29;20124;-78
2022/01/25 11:49:04;;;;;;;20.65;9.35;;;;;;;7.01;76.66;102726.41;4848607;29;20101;-78
2022/01/25 11:51:31;;;;;;;16.33;9.18;;;;;;;7.02;76.81;102730.78;4867299;29;20093;-78
2022/01/25 11:54:04;;;;;;;16.45;9.20;;;;;;;7.05;76.84;102721.97;4850042;29;20045;-78
2022/01/25 11:56:32;;;;;;;16.83;10.30;;;;;;;7.06;76.70;102718.13;4848340;29;20169;-78
2022/01/25 11:59:00;;;;;;;19.50;8.43;;;;;;;7.05;76.58;102716.47;4846704;29;20106;-78
2022/01/25 12:01:28;;;;;;;21.48;10.07;;;;;;;7.09;76.35;102723.09;4849043;29;20447;-79
2022/01/25 12:04:00;;;;;;;15.95;8.30;;;;;;;7.14;76.48;102717.59;4846524;29;20060;-79
2022/01/25 12:06:37;;;;;;;17.27;8.27;;;;;;;7.20;76.61;102719.25;4848467;29;20046;-78
2022/01/25 12:09:15;;;;;;;16.73;7.45;;;;;;;7.23;76.43;102719.53;4810012;29;20034;-78
2022/01/25 12:11:50;;;;;;;18.15;7.95;;;;;;;7.27;76.19;102725.31;4848102;29;20053;-79
2022/01/25 12:14:25;;;;;;;13.98;7.47;;;;;;;7.30;75.98;102722.03;4847921;29;20114;-78
2022/01/25 12:17:03;;;;;;;13.40;7.10;;;;;;;7.31;76.00;102726.41;4848867;29;20056;-78
2022/01/25 12:19:30;;;;;;;15.35;7.68;;;;;;;7.33;75.82;102716.75;4847142;29;20482;-78
2022/01/25 12:22:03;;;;;;;18.02;8.93;;;;;;;7.38;75.83;102715.13;4846290;29;20049;-78
2022/01/25 12:24:46;;;;;;;16.40;8.65;;;;;;;7.43;75.94;102718.72;4847259;29;20450;-78
2022/01/25 12:30:12;;;;;;;19.70;6.85;;;;;;;7.48;75.51;102710.44;4849802;29;20048;-78
2022/01/25 12:33:02;;;;;;;11.00;6.85;;;;;;;7.49;75.28;102711.25;4849300;29;20044;-78
2022/01/25 12:35:54;;;;;;;16.63;7.53;;;;;;;7.52;75.18;102711.53;4847063;29;20053;-78
2022/01/25 12:38:27;;;;;;;15.02;7.45;;;;;;;7.53;75.20;102707.66;4865333;29;20072;-78
2022/01/25 12:40:57;;;;;;;;;;;;;;;7.54;75.09;102709.34;4847681;29;20058;-78
2022/01/25 12:43:26;;;;;;;19.15;9.13;;;;;;;7.56;75.29;102704.38;4843581;29;19930;-78
2022/01/25 12:46:16;;;;;;;19.65;7.03;;;;;;;7.60;74.84;102710.97;4847531;29;20046;-81
2022/01/25 12:48:52;;;;;;;20.17;6.95;;;;;;;7.62;75.10;102708.78;4849100;29;20614;-79
2022/01/25 12:51:28;;;;;;;12.43;7.43;;;;;;;7.65;74.71;102713.72;4846655;29;20144;-78
2022/01/25 12:53:58;;;;;;;16.13;8.23;;;;;;;7.66;74.97;102720.06;4849658;29;20045;-78
2022/01/25 12:56:28;;;;;;;14.60;7.43;;;;;;;7.65;74.65;102721.97;4847149;29;20053;-79
2022/01/25 12:58:58;;;;;;;16.63;7.72;;;;;;;7.65;74.47;102712.91;4848370;29;20123;-78
2022/01/25 13:01:27;;;;;;;12.38;6.63;;;;;;;7.65;74.27;102716.47;4847008;29;20575;-78
2022/01/25 13:04:00;;;;;;;18.13;7.13;;;;;;;7.67;74.03;102707.94;4845948;29;20045;-79
2022/01/25 13:06:39;;;;;;;16.30;6.60;;;;;;;7.70;73.98;102708.22;4847238;29;20550;-79
2022/01/25 13:09:19;;;;;;;19.15;6.78;;;;;;;7.72;74.05;102700.47;4847829;29;20106;-79
2022/01/25 13:16:58;;;;;;;12.88;6.93;;;;;;;7.84;74.18;102698.25;4848812;29;20049;-79
2022/01/25 13:19:27;;;;;;;9.43;5.63;;;;;;;7.84;73.79;102705.69;4848763;29;20047;-79
2022/01/25 13:21:59;;;;;;;11.35;5.82;;;;;;;7.86;73.63;102706.25;4847087;29;20656;-78
2022/01/25 13:24:43;;;;;;;14.20;5.53;;;;;;;7.87;73.41;102707.88;4847536;29;20046;-79